Time,TemperatureF,DewpointF,PressureIn,WindDirection,WindDirectionDegrees,WindSpeedMPH,WindSpeedGustMPH,Humidity,HourlyPrecipIn,Conditions,Clouds,dailyrainin,SolarRadiationWatts/m^2,SoftwareType,DateUTC
2013-01-18 00:00:00,31.6,29.5,30.18,WSW,254,6.0,14.0,92,0.00,,---,0.00,0.00,VWS V14.00,2013-01-18 05:00:00,
2013-01-18 00:01:00,31.6,29.5,30.18,West,272,7.0,14.0,92,0.00,,---,0.00,0.00,VWS V14.00,2013-01-18 05:01:00,
2013-01-18 00:06:00,31.5,27.8,30.18,West,277,8.0,13.0,86,0.00,,---,0.00,0.00,VWS V14.00,2013-01-18 05:06:00,
2013-01-18 00:11:00,31.5,27.8,30.18,West,267,7.0,13.0,86,0.00,,---,0.00,0.00,VWS V14.00,2013-01-18 05:11:00,
2013-01-18 00:16:00,31.4,27.7,30.18,West,269,6.0,13.0,86,0.00,,---,0.00,0.00,VWS V14.00,2013-01-18 05:16:00,
2013-01-18 00:21:00,31.4,27.7,30.18,WNW,284,11.0,13.0,86,0.00,,---,0.00,0.00,VWS V14.00,2013-01-18 05:21:00,
2013-01-18 00:26:00,31.4,27.7,30.19,West,270,8.0,14.0,86,0.00,,---,0.00,0.00,VWS V14.00,2013-01-18 05:26:00,
2013-01-18 00:30:00,31.3,27.6,30.19,West,273,11.0,14.0,86,0.00,,---,0.00,0.00,VWS V14.00,2013-01-18 05:30:00,
2013-01-18 00:31:00,31.3,27.6,30.19,West,278,9.0,11.0,86,0.00,,---,0.00,0.00,VWS V14.00,2013-01-18 05:31:00,
2013-01-18 00:36:00,31.2,27.5,30.20,West,277,7.0,12.0,86,0.00,,---,0.00,0.00,VWS V14.00,2013-01-18 05:36:00,
2013-01-18 00:41:00,31.1,27.4,30.20,West,281,6.0,14.0,86,0.00,,---,0.00,0.00,VWS V14.00,2013-01-18 05:41:00,
2013-01-18 00:46:00,31.2,27.5,30.20,West,279,6.0,19.0,86,0.00,,---,0.00,0.00,VWS V14.00,2013-01-18 05:46:00,
2013-01-18 00:51:00,31.3,27.3,30.21,West,275,8.0,19.0,85,0.00,,---,0.00,0.00,VWS V14.00,2013-01-18 05:51:00,
2013-01-18 00:56:00,31.4,27.1,30.21,West,277,7.0,19.0,84,0.00,,---,0.00,0.00,VWS V14.00,2013-01-18 05:56:00,
2013-01-18 01:00:00,31.3,27.0,30.21,WSW,255,12.0,19.0,84,0.00,,---,0.00,0.00,VWS V14.00,2013-01-18 06:00:00,
2013-01-18 01:01:00,31.4,27.1,30.21,West,276,13.0,13.0,84,0.00,,---,0.00,0.00,VWS V14.00,2013-01-18 06:01:00,
2013-01-18 01:06:00,31.4,27.1,30.22,WNW,288,5.0,14.0,84,0.00,,---,0.00,0.00,VWS V14.00,2013-01-18 06:06:00,
2013-01-18 01:11:00,31.3,26.8,30.22,West,269,10.0,16.0,83,0.00,,---,0.00,0.00,VWS V14.00,2013-01-18 06:11:00,
2013-01-18 01:16:00,31.2,26.4,30.22,NW,309,8.0,16.0,82,0.00,,---,0.00,0.00,VWS V14.00,2013-01-18 06:16:00,
2013-01-18 01:21:00,31.2,25.5,30.23,WNW,300,12.0,20.0,79,0.00,,---,0.00,0.00,VWS V14.00,2013-01-18 06:21:00,
2013-01-18 01:26:00,31.2,25.1,30.23,West,274,9.0,20.0,78,0.00,,---,0.00,0.00,VWS V14.00,2013-01-18 06:26:00,
2013-01-18 01:30:00,31.1,25.1,30.23,WNW,282,12.0,20.0,78,0.00,,---,0.00,0.00,VWS V14.00,2013-01-18 06:30:00,
2013-01-18 01:31:00,31.1,24.8,30.23,NNW,340,7.0,16.0,77,0.00,,---,0.00,0.00,VWS V14.00,2013-01-18 06:31:00,
2013-01-18 01:37:00,30.9,26.4,30.23,NW,304,13.0,20.0,83,0.00,,---,0.00,0.00,VWS V14.00,2013-01-18 06:37:00,
2013-01-18 01:42:00,30.8,24.5,30.24,WNW,289,11.0,20.0,77,0.00,,---,0.00,0.00,VWS V14.00,2013-01-18 06:42:00,
2013-01-18 01:47:00,30.5,23.9,30.24,West,279,14.0,21.0,76,0.00,,---,0.00,0.00,VWS V14.00,2013-01-18 06:47:00,
2013-01-18 01:52:00,30.2,23.2,30.25,West,274,11.0,21.0,75,0.00,,---,0.00,0.00,VWS V14.00,2013-01-18 06:52:00,
2013-01-18 01:57:00,29.9,23.3,30.26,NW,306,16.0,21.0,76,0.00,,---,0.00,0.00,VWS V14.00,2013-01-18 06:57:00,
2013-01-18 02:00:00,29.8,22.9,30.26,West,279,11.0,21.0,75,0.00,,---,0.00,0.00,VWS V14.00,2013-01-18 07:00:00,
2013-01-18 02:02:00,29.8,22.9,30.26,West,276,9.0,13.0,75,0.00,,---,0.00,0.00,VWS V14.00,2013-01-18 07:02:00,
2013-01-18 02:07:00,29.7,23.1,30.27,West,279,7.0,19.0,76,0.00,,---,0.00,0.00,VWS V14.00,2013-01-18 07:07:00,
2013-01-18 02:12:00,29.4,22.5,30.27,WNW,294,13.0,21.0,75,0.00,,---,0.00,0.00,VWS V14.00,2013-01-18 07:12:00,
2013-01-18 02:17:00,29.1,22.5,30.27,WNW,288,8.0,21.0,76,0.00,,---,0.00,0.00,VWS V14.00,2013-01-18 07:17:00,
2013-01-18 02:22:00,29.0,22.1,30.28,WNW,301,7.0,21.0,75,0.00,,---,0.00,0.00,VWS V14.00,2013-01-18 07:22:00,
2013-01-18 02:27:00,28.8,21.9,30.28,WNW,301,6.0,21.0,75,0.00,,---,0.00,0.00,VWS V14.00,2013-01-18 07:27:00,
2013-01-18 02:30:00,28.8,21.9,30.29,WNW,282,9.0,21.0,75,0.00,,---,0.00,0.00,VWS V14.00,2013-01-18 07:30:00,
2013-01-18 02:32:00,28.8,21.9,30.29,NW,317,8.0,12.0,75,0.00,,---,0.00,0.00,VWS V14.00,2013-01-18 07:32:00,
2013-01-18 02:37:00,28.6,21.7,30.30,WNW,290,5.0,15.0,75,0.00,,---,0.00,0.00,VWS V14.00,2013-01-18 07:37:00,
2013-01-18 02:42:00,28.5,21.3,30.30,WNW,285,12.0,16.0,74,0.00,,---,0.00,0.00,VWS V14.00,2013-01-18 07:42:00,
2013-01-18 02:47:00,28.5,21.6,30.30,NW,314,6.0,17.0,75,0.00,,---,0.00,0.00,VWS V14.00,2013-01-18 07:47:00,
2013-01-18 02:52:00,28.4,21.8,30.30,NW,307,5.0,17.0,76,0.00,,---,0.00,0.00,VWS V14.00,2013-01-18 07:52:00,
2013-01-18 02:57:00,28.3,21.7,30.30,WNW,297,12.0,17.0,76,0.00,,---,0.00,0.00,VWS V14.00,2013-01-18 07:57:00,
2013-01-18 03:00:00,28.3,21.7,30.31,West,271,14.0,17.0,76,0.00,,---,0.00,0.00,VWS V14.00,2013-01-18 08:00:00,
2013-01-18 03:02:00,28.3,21.7,30.31,WNW,292,12.0,14.0,76,0.00,,---,0.00,0.00,VWS V14.00,2013-01-18 08:02:00,
2013-01-18 03:07:00,28.2,21.6,30.32,WNW,286,8.0,16.0,76,0.00,,---,0.00,0.00,VWS V14.00,2013-01-18 08:07:00,
2013-01-18 03:12:00,28.1,21.2,30.32,WNW,303,11.0,17.0,75,0.00,,---,0.00,0.00,VWS V14.00,2013-01-18 08:12:00,
2013-01-18 03:17:00,27.9,20.7,30.32,WNW,293,12.0,17.0,74,0.00,,---,0.00,0.00,VWS V14.00,2013-01-18 08:17:00,
2013-01-18 03:22:00,27.7,20.5,30.32,NW,304,14.0,17.0,74,0.00,,---,0.00,0.00,VWS V14.00,2013-01-18 08:22:00,
2013-01-18 03:27:00,27.5,20.3,30.32,WNW,299,7.0,20.0,74,0.00,,---,0.00,0.00,VWS V14.00,2013-01-18 08:27:00,
2013-01-18 03:30:00,27.5,20.3,30.33,WNW,287,7.0,20.0,74,0.00,,---,0.00,0.00,VWS V14.00,2013-01-18 08:30:00,
2013-01-18 03:32:00,27.5,20.3,30.33,WNW,286,4.0,9.0,74,0.00,,---,0.00,0.00,VWS V14.00,2013-01-18 08:32:00,
2013-01-18 03:37:00,27.4,20.2,30.33,WNW,283,5.0,13.0,74,0.00,,---,0.00,0.00,VWS V14.00,2013-01-18 08:37:00,
2013-01-18 03:42:00,27.3,20.1,30.33,West,265,6.0,15.0,74,0.00,,---,0.00,0.00,VWS V14.00,2013-01-18 08:42:00,
2013-01-18 03:47:00,27.1,19.9,30.33,NW,309,13.0,15.0,74,0.00,,---,0.00,0.00,VWS V14.00,2013-01-18 08:47:00,
2013-01-18 03:52:00,27.0,19.8,30.34,WNW,287,11.0,19.0,74,0.00,,---,0.00,0.00,VWS V14.00,2013-01-18 08:52:00,
2013-01-18 03:57:00,26.9,19.4,30.34,WSW,249,12.0,19.0,73,0.00,,---,0.00,0.00,VWS V14.00,2013-01-18 08:57:00,
2013-01-18 04:00:00,26.7,19.2,30.34,West,275,9.0,19.0,73,0.00,,---,0.00,0.00,VWS V14.00,2013-01-18 09:00:00,
2013-01-18 04:02:00,26.7,19.2,30.34,WNW,302,14.0,14.0,73,0.00,,---,0.00,0.00,VWS V14.00,2013-01-18 09:02:00,
2013-01-18 04:07:00,26.5,19.0,30.34,WNW,295,7.0,14.0,73,0.00,,---,0.00,0.00,VWS V14.00,2013-01-18 09:07:00,
2013-01-18 04:12:00,26.4,18.9,30.35,West,279,9.0,14.0,73,0.00,,---,0.00,0.00,VWS V14.00,2013-01-18 09:12:00,
2013-01-18 04:18:00,26.3,18.5,30.35,West,280,9.0,14.0,72,0.00,,---,0.00,0.00,VWS V14.00,2013-01-18 09:18:00,
2013-01-18 04:23:00,26.2,18.1,30.35,NW,309,9.0,14.0,71,0.00,,---,0.00,0.00,VWS V14.00,2013-01-18 09:23:00,
2013-01-18 04:28:00,26.1,18.3,30.36,WNW,299,9.0,14.0,72,0.00,,---,0.00,0.00,VWS V14.00,2013-01-18 09:28:00,
2013-01-18 04:30:00,26.0,18.2,30.36,West,271,12.0,15.0,72,0.00,,---,0.00,0.00,VWS V14.00,2013-01-18 09:30:00,
2013-01-18 04:33:00,26.0,18.2,30.36,West,260,13.0,16.0,72,0.00,,---,0.00,0.00,VWS V14.00,2013-01-18 09:33:00,
2013-01-18 04:38:00,25.7,17.9,30.37,West,267,12.0,17.0,72,0.00,,---,0.00,0.00,VWS V14.00,2013-01-18 09:38:00,
2013-01-18 04:43:00,25.4,17.3,30.36,NW,304,12.0,18.0,71,0.00,,---,0.00,0.00,VWS V14.00,2013-01-18 09:43:00,
2013-01-18 04:48:00,25.0,16.9,30.37,WNW,292,5.0,18.0,71,0.00,,---,0.00,0.00,VWS V14.00,2013-01-18 09:48:00,
2013-01-18 04:53:00,24.8,16.8,30.37,West,273,12.0,18.0,71,0.00,,---,0.00,0.00,VWS V14.00,2013-01-18 09:53:00,
2013-01-18 04:58:00,24.6,16.9,30.38,WNW,282,8.0,22.0,72,0.00,,---,0.00,0.00,VWS V14.00,2013-01-18 09:58:00,
2013-01-18 05:00:00,24.5,16.5,30.38,WNW,284,8.0,22.0,71,0.00,,---,0.00,0.00,VWS V14.00,2013-01-18 10:00:00,
2013-01-18 05:03:00,24.4,16.7,30.38,West,265,5.0,12.0,72,0.00,,---,0.00,0.00,VWS V14.00,2013-01-18 10:03:00,
2013-01-18 05:08:00,24.2,16.5,30.38,WNW,288,7.0,12.0,72,0.00,,---,0.00,0.00,VWS V14.00,2013-01-18 10:08:00,
2013-01-18 05:13:00,24.0,16.6,30.38,West,277,8.0,13.0,73,0.00,,---,0.00,0.00,VWS V14.00,2013-01-18 10:13:00,
2013-01-18 05:18:00,24.0,16.6,30.39,WNW,282,7.0,13.0,73,0.00,,---,0.00,0.00,VWS V14.00,2013-01-18 10:18:00,
2013-01-18 05:23:00,23.9,16.8,30.39,West,273,7.0,13.0,74,0.00,,---,0.00,0.00,VWS V14.00,2013-01-18 10:23:00,
2013-01-18 05:28:00,24.1,17.0,30.40,West,276,11.0,14.0,74,0.00,,---,0.00,0.00,VWS V14.00,2013-01-18 10:28:00,
2013-01-18 05:30:00,24.2,17.1,30.40,West,271,4.0,14.0,74,0.00,,---,0.00,0.00,VWS V14.00,2013-01-18 10:30:00,
2013-01-18 05:33:00,24.2,17.1,30.40,West,267,5.0,8.0,74,0.00,,---,0.00,0.00,VWS V14.00,2013-01-18 10:33:00,
2013-01-18 05:38:00,24.1,17.0,30.40,West,268,5.0,13.0,74,0.00,,---,0.00,0.00,VWS V14.00,2013-01-18 10:38:00,
2013-01-18 05:43:00,24.0,17.2,30.41,West,263,12.0,14.0,75,0.00,,---,0.00,0.00,VWS V14.00,2013-01-18 10:43:00,
2013-01-18 05:48:00,23.9,17.1,30.41,West,276,12.0,16.0,75,0.00,,---,0.00,0.00,VWS V14.00,2013-01-18 10:48:00,
2013-01-18 05:53:00,23.8,17.4,30.41,West,263,11.0,16.0,76,0.00,,---,0.00,0.00,VWS V14.00,2013-01-18 10:53:00,
2013-01-18 05:58:00,23.7,17.0,30.42,West,275,6.0,16.0,75,0.00,,---,0.00,0.00,VWS V14.00,2013-01-18 10:58:00,
2013-01-18 06:00:00,23.6,16.9,30.42,West,279,5.0,16.0,75,0.00,,---,0.00,0.00,VWS V14.00,2013-01-18 11:00:00,
2013-01-18 06:03:00,23.6,17.2,30.42,West,266,6.0,10.0,76,0.00,,---,0.00,0.00,VWS V14.00,2013-01-18 11:03:00,
2013-01-18 06:08:00,23.5,16.8,30.42,West,272,8.0,11.0,75,0.00,,---,0.00,0.00,VWS V14.00,2013-01-18 11:08:00,
2013-01-18 06:13:00,23.4,17.0,30.43,West,279,12.0,14.0,76,0.00,,---,0.00,0.00,VWS V14.00,2013-01-18 11:13:00,
2013-01-18 06:18:00,23.4,17.0,30.43,West,272,7.0,14.0,76,0.00,,---,0.00,0.00,VWS V14.00,2013-01-18 11:18:00,
2013-01-18 06:23:00,23.3,16.9,30.43,West,273,8.0,14.0,76,0.00,,---,0.00,0.00,VWS V14.00,2013-01-18 11:23:00,
2013-01-18 06:28:00,23.3,16.9,30.43,WNW,295,7.0,14.0,76,0.00,,---,0.00,0.00,VWS V14.00,2013-01-18 11:28:00,
2013-01-18 06:30:00,23.3,16.9,30.43,WNW,294,11.0,14.0,76,0.00,,---,0.00,0.00,VWS V14.00,2013-01-18 11:30:00,
2013-01-18 06:33:00,23.2,16.8,30.44,WNW,288,5.0,12.0,76,0.00,,---,0.00,0.00,VWS V14.00,2013-01-18 11:33:00,
2013-01-18 06:38:00,23.2,17.1,30.44,NW,306,7.0,12.0,77,0.00,,---,0.00,0.00,VWS V14.00,2013-01-18 11:38:00,
2013-01-18 06:43:00,23.1,17.0,30.44,WNW,289,5.0,13.0,77,0.00,,---,0.00,0.00,VWS V14.00,2013-01-18 11:43:00,
2013-01-18 06:48:00,23.1,17.0,30.45,WNW,298,2.0,13.0,77,0.00,,---,0.00,0.00,VWS V14.00,2013-01-18 11:48:00,
2013-01-18 06:53:00,23.1,17.0,30.45,North,350,1.0,13.0,77,0.00,,---,0.00,0.00,VWS V14.00,2013-01-18 11:53:00,
2013-01-18 06:58:00,23.0,16.9,30.45,North,355,2.0,13.0,77,0.00,,---,0.00,0.00,VWS V14.00,2013-01-18 11:58:00,
2013-01-18 07:00:00,22.9,16.8,30.45,NNW,331,0.0,13.0,77,0.00,,---,0.00,0.00,VWS V14.00,2013-01-18 12:00:00,
2013-01-18 07:03:00,22.8,16.7,30.45,NNW,331,6.0,9.0,77,0.00,,---,0.00,0.00,VWS V14.00,2013-01-18 12:03:00,
2013-01-18 07:08:00,22.5,16.4,30.45,NNE,22,3.0,11.0,77,0.00,,---,0.00,0.00,VWS V14.00,2013-01-18 12:08:00,
2013-01-18 07:13:00,22.4,16.6,30.45,NNW,343,0.0,11.0,78,0.00,,---,0.00,0.00,VWS V14.00,2013-01-18 12:13:00,
2013-01-18 07:18:00,22.2,16.1,30.45,North,5,4.0,11.0,77,0.00,,---,0.00,0.00,VWS V14.00,2013-01-18 12:18:00,
2013-01-18 07:23:00,22.0,15.6,30.46,NNW,336,5.0,11.0,76,0.00,,---,0.00,0.00,VWS V14.00,2013-01-18 12:23:00,
2013-01-18 07:29:00,21.9,15.2,30.46,NNW,327,10.0,11.0,75,0.00,,---,0.00,0.00,VWS V14.00,2013-01-18 12:29:00,
2013-01-18 07:30:00,21.8,15.1,30.46,NW,310,6.0,11.0,75,0.00,,---,0.00,0.00,VWS V14.00,2013-01-18 12:30:00,
2013-01-18 07:34:00,21.8,14.8,30.46,NNW,341,4.0,8.0,74,0.00,,---,0.00,0.00,VWS V14.00,2013-01-18 12:34:00,
2013-01-18 07:39:00,21.7,15.0,30.47,NNW,330,4.0,9.0,75,0.00,,---,0.00,0.00,VWS V14.00,2013-01-18 12:39:00,
2013-01-18 07:44:00,21.8,15.1,30.47,North,5,2.0,9.0,75,0.00,,---,0.00,5.00,VWS V14.00,2013-01-18 12:44:00,
2013-01-18 07:49:00,21.7,14.7,30.47,NNW,333,2.0,9.0,74,0.00,,---,0.00,7.00,VWS V14.00,2013-01-18 12:49:00,
2013-01-18 07:54:00,21.7,14.1,30.47,North,355,1.0,9.0,72,0.00,,---,0.00,11.00,VWS V14.00,2013-01-18 12:54:00,
2013-01-18 07:59:00,21.6,14.0,30.48,NNW,345,10.0,11.0,72,0.00,,---,0.00,16.00,VWS V14.00,2013-01-18 12:59:00,
2013-01-18 08:00:00,21.6,13.3,30.47,NNW,346,5.0,11.0,70,0.00,,---,0.00,18.00,VWS V14.00,2013-01-18 13:00:00,
2013-01-18 08:04:00,21.6,13.3,30.47,NNW,348,6.0,8.0,70,0.00,,---,0.00,21.00,VWS V14.00,2013-01-18 13:04:00,
2013-01-18 08:09:00,21.6,13.7,30.47,NNW,346,2.0,8.0,71,0.00,,---,0.00,30.00,VWS V14.00,2013-01-18 13:09:00,
2013-01-18 08:14:00,21.5,13.2,30.47,NW,320,5.0,8.0,70,0.00,,---,0.00,37.00,VWS V14.00,2013-01-18 13:14:00,
2013-01-18 08:19:00,21.5,13.2,30.47,NNW,338,5.0,8.0,70,0.00,,---,0.00,42.00,VWS V14.00,2013-01-18 13:19:00,
2013-01-18 08:24:00,21.5,13.2,30.47,North,5,0.0,8.0,70,0.00,,---,0.00,47.00,VWS V14.00,2013-01-18 13:24:00,
2013-01-18 08:29:00,21.3,12.7,30.47,NNW,340,2.0,8.0,69,0.00,,---,0.00,84.00,VWS V14.00,2013-01-18 13:29:00,
2013-01-18 08:30:00,21.3,12.7,30.47,NNW,330,1.0,8.0,69,0.00,,---,0.00,32.00,VWS V14.00,2013-01-18 13:30:00,
2013-01-18 08:34:00,21.3,12.7,30.47,North,355,5.0,6.0,69,0.00,,---,0.00,105.00,VWS V14.00,2013-01-18 13:34:00,
2013-01-18 08:39:00,21.5,12.9,30.48,NNW,347,0.0,7.0,69,0.00,,---,0.00,141.00,VWS V14.00,2013-01-18 13:39:00,
2013-01-18 08:44:00,21.9,13.6,30.48,NW,310,0.0,7.0,70,0.00,,---,0.00,162.00,VWS V14.00,2013-01-18 13:44:00,
2013-01-18 08:49:00,22.1,13.5,30.48,NNE,13,2.0,7.0,69,0.00,,---,0.00,160.00,VWS V14.00,2013-01-18 13:49:00,
2013-01-18 08:54:00,22.1,13.2,30.48,WNW,300,0.0,7.0,68,0.00,,---,0.00,146.00,VWS V14.00,2013-01-18 13:54:00,
2013-01-18 08:59:00,22.3,14.0,30.49,NW,323,0.0,7.0,70,0.00,,---,0.00,118.00,VWS V14.00,2013-01-18 13:59:00,
2013-01-18 09:00:00,22.3,13.7,30.49,WNW,293,0.0,7.0,69,0.00,,---,0.00,130.00,VWS V14.00,2013-01-18 14:00:00,
2013-01-18 09:04:00,22.4,13.8,30.48,North,355,0.0,5.0,69,0.00,,---,0.00,195.00,VWS V14.00,2013-01-18 14:04:00,
2013-01-18 09:09:00,22.6,14.0,30.49,North,355,0.0,5.0,69,0.00,,---,0.00,220.00,VWS V14.00,2013-01-18 14:09:00,
2013-01-18 09:14:00,22.8,14.2,30.49,NW,317,0.0,5.0,69,0.00,,---,0.00,236.00,VWS V14.00,2013-01-18 14:14:00,
2013-01-18 09:19:00,23.0,14.0,30.49,WNW,301,2.0,6.0,68,0.00,,---,0.00,248.00,VWS V14.00,2013-01-18 14:19:00,
2013-01-18 09:24:00,23.2,14.6,30.49,NW,324,0.0,6.0,69,0.00,,---,0.00,264.00,VWS V14.00,2013-01-18 14:24:00,
2013-01-18 09:29:00,23.5,15.2,30.50,NNW,327,1.0,6.0,70,0.00,,---,0.00,278.00,VWS V14.00,2013-01-18 14:29:00,
2013-01-18 09:30:00,23.5,15.2,30.50,NW,324,2.0,6.0,70,0.00,,---,0.00,283.00,VWS V14.00,2013-01-18 14:30:00,
2013-01-18 09:34:00,23.6,15.3,30.50,WNW,298,0.0,4.0,70,0.00,,---,0.00,241.00,VWS V14.00,2013-01-18 14:34:00,
2013-01-18 09:39:00,23.8,15.5,30.50,WNW,287,8.0,8.0,70,0.00,,---,0.00,306.00,VWS V14.00,2013-01-18 14:39:00,
2013-01-18 09:44:00,23.9,14.9,30.50,NW,324,2.0,8.0,68,0.00,,---,0.00,315.00,VWS V14.00,2013-01-18 14:44:00,
2013-01-18 09:49:00,24.0,14.6,30.51,NW,309,8.0,12.0,67,0.00,,---,0.00,329.00,VWS V14.00,2013-01-18 14:49:00,
2013-01-18 09:54:00,24.1,14.4,30.51,West,281,6.0,12.0,66,0.00,,---,0.00,345.00,VWS V14.00,2013-01-18 14:54:00,
2013-01-18 10:00:00,24.2,14.1,30.51,WNW,302,6.0,12.0,65,0.00,,---,0.00,339.00,VWS V14.00,2013-01-18 15:00:00,
2013-01-18 10:05:00,24.4,14.7,30.52,NW,317,5.0,11.0,66,0.00,,---,0.00,371.00,VWS V14.00,2013-01-18 15:05:00,
2013-01-18 10:10:00,24.5,14.4,30.52,North,360,5.0,11.0,65,0.00,,---,0.00,383.00,VWS V14.00,2013-01-18 15:10:00,
2013-01-18 10:15:00,24.8,14.7,30.52,NW,313,2.0,11.0,65,0.00,,---,0.00,401.00,VWS V14.00,2013-01-18 15:15:00,
2013-01-18 10:20:00,25.0,14.6,30.52,West,271,5.0,11.0,64,0.00,,---,0.00,390.00,VWS V14.00,2013-01-18 15:20:00,
2013-01-18 10:25:00,25.0,14.9,30.52,West,263,0.0,11.0,65,0.00,,---,0.00,415.00,VWS V14.00,2013-01-18 15:25:00,
2013-01-18 10:30:00,25.4,16.0,30.52,WNW,284,0.0,11.0,67,0.00,,---,0.00,422.00,VWS V14.00,2013-01-18 15:30:00,
2013-01-18 10:35:00,25.9,15.4,30.52,WSW,257,0.0,8.0,64,0.00,,---,0.00,436.00,VWS V14.00,2013-01-18 15:35:00,
2013-01-18 10:40:00,25.9,15.4,30.52,WNW,288,5.0,8.0,64,0.00,,---,0.00,445.00,VWS V14.00,2013-01-18 15:40:00,
2013-01-18 10:45:00,25.9,15.8,30.52,West,272,8.0,8.0,65,0.00,,---,0.00,457.00,VWS V14.00,2013-01-18 15:45:00,
2013-01-18 10:50:00,26.0,15.9,30.52,West,263,5.0,9.0,65,0.00,,---,0.00,462.00,VWS V14.00,2013-01-18 15:50:00,
2013-01-18 10:55:00,26.1,15.2,30.52,West,263,2.0,9.0,63,0.00,,---,0.00,466.00,VWS V14.00,2013-01-18 15:55:00,
2013-01-18 11:00:00,26.4,16.6,30.51,WSW,254,7.0,9.0,66,0.00,,---,0.00,466.00,VWS V14.00,2013-01-18 16:00:00,
2013-01-18 11:05:00,26.3,15.8,30.51,WNW,294,6.0,6.0,64,0.00,,---,0.00,480.00,VWS V14.00,2013-01-18 16:05:00,
2013-01-18 11:10:00,26.3,15.4,30.51,SW,221,3.0,8.0,63,0.00,,---,0.00,483.00,VWS V14.00,2013-01-18 16:10:00,
2013-01-18 11:15:00,26.5,16.7,30.51,NW,309,0.0,8.0,66,0.00,,---,0.00,487.00,VWS V14.00,2013-01-18 16:15:00,
2013-01-18 11:20:00,27.0,16.8,30.51,West,273,9.0,12.0,65,0.00,,---,0.00,497.00,VWS V14.00,2013-01-18 16:20:00,
2013-01-18 11:25:00,26.8,15.5,30.50,WNW,300,4.0,12.0,62,0.00,,---,0.00,506.00,VWS V14.00,2013-01-18 16:25:00,
2013-01-18 11:30:00,27.0,16.1,30.50,West,269,5.0,12.0,63,0.00,,---,0.00,508.00,VWS V14.00,2013-01-18 16:30:00,
2013-01-18 11:35:00,27.0,15.7,30.50,West,263,2.0,11.0,62,0.00,,---,0.00,513.00,VWS V14.00,2013-01-18 16:35:00,
2013-01-18 11:40:00,27.1,16.2,30.50,West,273,7.0,11.0,63,0.00,,---,0.00,517.00,VWS V14.00,2013-01-18 16:40:00,
2013-01-18 11:45:00,27.2,16.3,30.50,NNW,327,5.0,11.0,63,0.00,,---,0.00,515.00,VWS V14.00,2013-01-18 16:45:00,
2013-01-18 11:50:00,27.6,16.7,30.50,NNW,339,6.0,12.0,63,0.00,,---,0.00,526.00,VWS V14.00,2013-01-18 16:50:00,
2013-01-18 11:55:00,27.7,16.8,30.49,WNW,286,2.0,12.0,63,0.00,,---,0.00,527.00,VWS V14.00,2013-01-18 16:55:00,
2013-01-18 12:00:00,28.1,16.4,30.49,SW,227,6.0,12.0,61,0.00,,---,0.00,529.00,VWS V14.00,2013-01-18 17:00:00,
2013-01-18 12:05:00,28.2,17.6,30.49,WSW,248,5.0,8.0,64,0.00,,---,0.00,534.00,VWS V14.00,2013-01-18 17:05:00,
2013-01-18 12:10:00,28.4,17.4,30.48,SW,225,4.0,8.0,63,0.00,,---,0.00,538.00,VWS V14.00,2013-01-18 17:10:00,
2013-01-18 12:15:00,28.6,16.5,30.47,West,276,7.0,12.0,60,0.00,,---,0.00,540.00,VWS V14.00,2013-01-18 17:15:00,
2013-01-18 12:20:00,28.4,16.7,30.47,SSW,206,0.0,12.0,61,0.00,,---,0.00,540.00,VWS V14.00,2013-01-18 17:20:00,
2013-01-18 12:26:00,28.4,15.9,30.48,WNW,302,6.0,12.0,59,0.00,,---,0.00,538.00,VWS V14.00,2013-01-18 17:26:00,
2013-01-18 12:30:00,28.5,16.8,30.47,WNW,298,5.0,12.0,61,0.00,,---,0.00,540.00,VWS V14.00,2013-01-18 17:30:00,
2013-01-18 12:31:00,28.5,16.8,30.47,WNW,301,2.0,12.0,61,0.00,,---,0.00,540.00,VWS V14.00,2013-01-18 17:31:00,
2013-01-18 12:36:00,28.7,16.2,30.47,WNW,302,2.0,6.0,59,0.00,,---,0.00,541.00,VWS V14.00,2013-01-18 17:36:00,
2013-01-18 12:41:00,28.7,16.6,30.47,West,281,5.0,9.0,60,0.00,,---,0.00,540.00,VWS V14.00,2013-01-18 17:41:00,
2013-01-18 12:46:00,29.0,16.9,30.47,West,259,4.0,9.0,60,0.00,,---,0.00,538.00,VWS V14.00,2013-01-18 17:46:00,
2013-01-18 12:51:00,29.4,16.5,30.46,West,274,4.0,9.0,58,0.00,,---,0.00,536.00,VWS V14.00,2013-01-18 17:51:00,
2013-01-18 12:56:00,29.6,17.4,30.46,West,265,2.0,9.0,60,0.00,,---,0.00,533.00,VWS V14.00,2013-01-18 17:56:00,
2013-01-18 13:00:00,29.9,17.7,30.45,SW,219,0.0,9.0,60,0.00,,---,0.00,533.00,VWS V14.00,2013-01-18 18:00:00,
2013-01-18 13:01:00,29.9,17.7,30.45,SW,219,0.0,0.0,60,0.00,,---,0.00,533.00,VWS V14.00,2013-01-18 18:01:00,
2013-01-18 13:06:00,30.4,18.6,30.45,SE,130,0.0,4.0,61,0.00,,---,0.00,527.00,VWS V14.00,2013-01-18 18:06:00,
2013-01-18 13:11:00,30.6,17.2,30.45,WSW,255,2.0,9.0,57,0.00,,---,0.00,527.00,VWS V14.00,2013-01-18 18:11:00,
2013-01-18 13:16:00,30.7,17.7,30.45,SW,227,1.0,9.0,58,0.00,,---,0.00,524.00,VWS V14.00,2013-01-18 18:16:00,
2013-01-18 13:21:00,31.0,18.4,30.45,SSW,205,3.0,9.0,59,0.00,,---,0.00,520.00,VWS V14.00,2013-01-18 18:21:00,
2013-01-18 13:26:00,31.1,17.7,30.45,West,275,4.0,10.0,57,0.00,,---,0.00,517.00,VWS V14.00,2013-01-18 18:26:00,
2013-01-18 13:30:00,30.8,17.4,30.45,West,267,5.0,10.0,57,0.00,,---,0.00,510.00,VWS V14.00,2013-01-18 18:30:00,
2013-01-18 13:31:00,30.8,17.4,30.45,West,279,6.0,7.0,57,0.00,,---,0.00,510.00,VWS V14.00,2013-01-18 18:31:00,
2013-01-18 13:36:00,30.8,17.8,30.45,West,267,1.0,8.0,58,0.00,,---,0.00,506.00,VWS V14.00,2013-01-18 18:36:00,
2013-01-18 13:41:00,31.0,17.2,30.45,West,275,1.0,8.0,56,0.00,,---,0.00,503.00,VWS V14.00,2013-01-18 18:41:00,
2013-01-18 13:46:00,30.9,17.1,30.45,SSW,209,0.0,8.0,56,0.00,,---,0.00,494.00,VWS V14.00,2013-01-18 18:46:00,
2013-01-18 13:51:00,31.1,17.7,30.45,WSW,242,0.0,8.0,57,0.00,,---,0.00,492.00,VWS V14.00,2013-01-18 18:51:00,
2013-01-18 13:56:00,31.4,17.9,30.45,West,270,6.0,10.0,57,0.00,,---,0.00,483.00,VWS V14.00,2013-01-18 18:56:00,
2013-01-18 14:00:00,31.7,17.8,30.45,WSW,242,3.0,10.0,56,0.00,,---,0.00,473.00,VWS V14.00,2013-01-18 19:00:00,
2013-01-18 14:01:00,31.8,17.9,30.45,WSW,243,1.0,3.0,56,0.00,,---,0.00,473.00,VWS V14.00,2013-01-18 19:01:00,
2013-01-18 14:06:00,32.0,17.7,30.45,SSE,148,2.0,6.0,55,0.00,,---,0.00,466.00,VWS V14.00,2013-01-18 19:06:00,
2013-01-18 14:11:00,32.2,18.3,30.45,WSW,250,1.0,6.0,56,0.00,,---,0.00,450.00,VWS V14.00,2013-01-18 19:11:00,
2013-01-18 14:16:00,32.4,18.5,30.45,SE,144,0.0,6.0,56,0.00,,---,0.00,139.00,VWS V14.00,2013-01-18 19:16:00,
2013-01-18 14:21:00,32.5,18.1,30.45,SSW,209,2.0,9.0,55,0.00,,---,0.00,40.00,VWS V14.00,2013-01-18 19:21:00,
2013-01-18 14:26:00,32.4,17.2,30.45,West,267,1.0,9.0,53,0.00,,---,0.00,39.00,VWS V14.00,2013-01-18 19:26:00,
2013-01-18 14:30:00,32.5,17.7,30.45,SW,229,1.0,9.0,54,0.00,,---,0.00,98.00,VWS V14.00,2013-01-18 19:30:00,
2013-01-18 14:31:00,32.5,18.6,30.45,SSE,165,2.0,5.0,56,0.00,,---,0.00,98.00,VWS V14.00,2013-01-18 19:31:00,
2013-01-18 14:36:00,32.5,18.6,30.44,WSW,250,4.0,6.0,56,0.00,,---,0.00,323.00,VWS V14.00,2013-01-18 19:36:00,
2013-01-18 14:41:00,32.7,18.3,30.45,WSW,245,0.0,6.0,55,0.00,,---,0.00,234.00,VWS V14.00,2013-01-18 19:41:00,
2013-01-18 14:46:00,33.0,18.2,30.44,WSW,253,2.0,6.0,54,0.00,,---,0.00,135.00,VWS V14.00,2013-01-18 19:46:00,
2013-01-18 14:52:00,33.1,17.8,30.44,ESE,117,0.0,6.0,53,0.00,,---,0.00,46.00,VWS V14.00,2013-01-18 19:52:00,
2013-01-18 14:57:00,33.3,18.9,30.44,WSW,242,4.0,6.0,55,0.00,,---,0.00,42.00,VWS V14.00,2013-01-18 19:57:00,
2013-01-18 15:00:00,33.4,18.6,30.44,WSW,255,6.0,8.0,54,0.00,,---,0.00,42.00,VWS V14.00,2013-01-18 20:00:00,
2013-01-18 15:02:00,33.4,18.1,30.44,WSW,244,2.0,7.0,53,0.00,,---,0.00,37.00,VWS V14.00,2013-01-18 20:02:00,
2013-01-18 15:07:00,33.3,18.5,30.44,West,259,3.0,8.0,54,0.00,,---,0.00,35.00,VWS V14.00,2013-01-18 20:07:00,
2013-01-18 15:12:00,33.3,18.0,30.43,WSW,246,1.0,11.0,53,0.00,,---,0.00,35.00,VWS V14.00,2013-01-18 20:12:00,
2013-01-18 15:17:00,33.3,18.5,30.43,SW,219,1.0,11.0,54,0.00,,---,0.00,35.00,VWS V14.00,2013-01-18 20:17:00,
2013-01-18 15:22:00,33.5,17.8,30.43,SW,235,2.0,11.0,52,0.00,,---,0.00,35.00,VWS V14.00,2013-01-18 20:22:00,
2013-01-18 15:27:00,33.6,18.7,30.42,South,187,2.0,11.0,54,0.00,,---,0.00,33.00,VWS V14.00,2013-01-18 20:27:00,
2013-01-18 15:30:00,33.7,18.4,30.42,South,184,0.0,11.0,53,0.00,,---,0.00,33.00,VWS V14.00,2013-01-18 20:30:00,
2013-01-18 15:32:00,33.7,18.4,30.42,NW,305,2.0,5.0,53,0.00,,---,0.00,33.00,VWS V14.00,2013-01-18 20:32:00,
2013-01-18 15:37:00,33.7,17.5,30.42,SW,221,2.0,7.0,51,0.00,,---,0.00,33.00,VWS V14.00,2013-01-18 20:37:00,
2013-01-18 15:42:00,33.6,17.0,30.42,South,182,4.0,7.0,50,0.00,,---,0.00,42.00,VWS V14.00,2013-01-18 20:42:00,
2013-01-18 15:47:00,33.8,18.5,30.42,SW,216,1.0,7.0,53,0.00,,---,0.00,62.00,VWS V14.00,2013-01-18 20:47:00,
2013-01-18 15:52:00,34.0,18.2,30.42,South,173,1.0,7.0,52,0.00,,---,0.00,81.00,VWS V14.00,2013-01-18 20:52:00,
2013-01-18 15:57:00,34.2,18.0,30.42,SW,226,0.0,7.0,51,0.00,,---,0.00,102.00,VWS V14.00,2013-01-18 20:57:00,
2013-01-18 16:00:00,34.3,17.6,30.42,South,181,1.0,7.0,50,0.00,,---,0.00,121.00,VWS V14.00,2013-01-18 21:00:00,
2013-01-18 16:02:00,34.3,17.6,30.42,South,182,1.0,4.0,50,0.00,,---,0.00,125.00,VWS V14.00,2013-01-18 21:02:00,
2013-01-18 16:07:00,34.3,18.1,30.42,SSW,206,3.0,6.0,51,0.00,,---,0.00,127.00,VWS V14.00,2013-01-18 21:07:00,
2013-01-18 16:12:00,34.2,17.0,30.41,SSW,209,5.0,6.0,49,0.00,,---,0.00,132.00,VWS V14.00,2013-01-18 21:12:00,
2013-01-18 16:17:00,33.9,17.7,30.41,WSW,253,3.0,6.0,51,0.00,,---,0.00,128.00,VWS V14.00,2013-01-18 21:17:00,
2013-01-18 16:22:00,33.7,17.5,30.42,WSW,237,0.0,6.0,51,0.00,,---,0.00,26.00,VWS V14.00,2013-01-18 21:22:00,
2013-01-18 16:27:00,33.4,18.1,30.41,SSW,192,0.0,6.0,53,0.00,,---,0.00,33.00,VWS V14.00,2013-01-18 21:27:00,
2013-01-18 16:30:00,33.3,17.6,30.42,SSW,204,0.0,6.0,52,0.00,,---,0.00,26.00,VWS V14.00,2013-01-18 21:30:00,
2013-01-18 16:32:00,33.2,17.5,30.42,South,173,0.0,1.0,52,0.00,,---,0.00,26.00,VWS V14.00,2013-01-18 21:32:00,
2013-01-18 16:37:00,33.1,17.4,30.41,South,180,1.0,4.0,52,0.00,,---,0.00,33.00,VWS V14.00,2013-01-18 21:37:00,
2013-01-18 16:42:00,33.1,17.0,30.41,SSE,162,0.0,4.0,51,0.00,,---,0.00,54.00,VWS V14.00,2013-01-18 21:42:00,
2013-01-18 16:47:00,33.2,17.0,30.41,SSE,161,5.0,5.0,51,0.00,,---,0.00,47.00,VWS V14.00,2013-01-18 21:47:00,
2013-01-18 16:52:00,33.1,16.5,30.41,SSW,198,0.0,9.0,50,0.00,,---,0.00,19.00,VWS V14.00,2013-01-18 21:52:00,
2013-01-18 16:58:00,32.9,16.3,30.41,South,190,3.0,9.0,50,0.00,,---,0.00,23.00,VWS V14.00,2013-01-18 21:58:00,
2013-01-18 17:00:00,32.8,16.7,30.41,SSE,156,0.0,9.0,51,0.00,,---,0.00,19.00,VWS V14.00,2013-01-18 22:00:00,
2013-01-18 17:03:00,32.7,16.6,30.41,SE,142,0.0,5.0,51,0.00,,---,0.00,19.00,VWS V14.00,2013-01-18 22:03:00,
2013-01-18 17:08:00,32.5,16.9,30.41,South,188,0.0,5.0,52,0.00,,---,0.00,18.00,VWS V14.00,2013-01-18 22:08:00,
2013-01-18 17:13:00,32.3,16.7,30.41,South,185,1.0,8.0,52,0.00,,---,0.00,12.00,VWS V14.00,2013-01-18 22:13:00,
2013-01-18 17:18:00,32.2,17.0,30.40,SSE,153,0.0,8.0,53,0.00,,---,0.00,9.00,VWS V14.00,2013-01-18 22:18:00,
2013-01-18 17:23:00,32.0,16.8,30.41,SSE,162,0.0,8.0,53,0.00,,---,0.00,7.00,VWS V14.00,2013-01-18 22:23:00,
2013-01-18 17:28:00,31.8,17.1,30.40,SE,128,0.0,8.0,54,0.00,,---,0.00,5.00,VWS V14.00,2013-01-18 22:28:00,
2013-01-18 17:30:00,31.7,17.0,30.40,SE,127,0.0,8.0,54,0.00,,---,0.00,0.00,VWS V14.00,2013-01-18 22:30:00,
2013-01-18 17:33:00,31.6,16.9,30.40,SE,127,0.0,0.0,54,0.00,,---,0.00,0.00,VWS V14.00,2013-01-18 22:33:00,
2013-01-18 17:38:00,31.4,16.7,30.40,SE,142,0.0,5.0,54,0.00,,---,0.00,0.00,VWS V14.00,2013-01-18 22:38:00,
2013-01-18 17:43:00,31.3,16.6,30.40,South,188,0.0,5.0,54,0.00,,---,0.00,0.00,VWS V14.00,2013-01-18 22:43:00,
2013-01-18 17:48:00,31.1,16.8,30.40,SSE,162,0.0,5.0,55,0.00,,---,0.00,0.00,VWS V14.00,2013-01-18 22:48:00,
2013-01-18 17:53:00,31.0,16.7,30.40,SSE,156,0.0,5.0,55,0.00,,---,0.00,0.00,VWS V14.00,2013-01-18 22:53:00,
2013-01-18 17:58:00,31.0,17.2,30.40,South,186,0.0,5.0,56,0.00,,---,0.00,0.00,VWS V14.00,2013-01-18 22:58:00,
2013-01-18 18:00:00,30.9,17.1,30.40,South,184,0.0,5.0,56,0.00,,---,0.00,0.00,VWS V14.00,2013-01-18 23:00:00,
2013-01-18 18:03:00,30.8,17.0,30.40,SSE,158,1.0,3.0,56,0.00,,---,0.00,0.00,VWS V14.00,2013-01-18 23:03:00,
2013-01-18 18:08:00,30.7,17.3,30.41,SE,135,1.0,7.0,57,0.00,,---,0.00,0.00,VWS V14.00,2013-01-18 23:08:00,
2013-01-18 18:13:00,30.7,17.3,30.40,South,179,1.0,7.0,57,0.00,,---,0.00,0.00,VWS V14.00,2013-01-18 23:13:00,
2013-01-18 18:18:00,30.7,17.7,30.40,SSW,197,1.0,7.0,58,0.00,,---,0.00,0.00,VWS V14.00,2013-01-18 23:18:00,
2013-01-18 18:23:00,30.6,17.2,30.40,SW,226,0.0,7.0,57,0.00,,---,0.00,0.00,VWS V14.00,2013-01-18 23:23:00,
2013-01-18 18:28:00,30.5,17.5,30.40,SSW,213,0.0,7.0,58,0.00,,---,0.00,0.00,VWS V14.00,2013-01-18 23:28:00,
2013-01-18 18:30:00,30.5,17.5,30.40,SE,134,0.0,7.0,58,0.00,,---,0.00,0.00,VWS V14.00,2013-01-18 23:30:00,
2013-01-18 18:33:00,30.4,17.4,30.40,South,190,1.0,6.0,58,0.00,,---,0.00,0.00,VWS V14.00,2013-01-18 23:33:00,
2013-01-18 18:38:00,30.4,17.8,30.40,South,181,0.0,6.0,59,0.00,,---,0.00,0.00,VWS V14.00,2013-01-18 23:38:00,
2013-01-18 18:43:00,30.3,17.3,30.40,South,177,0.0,6.0,58,0.00,,---,0.00,0.00,VWS V14.00,2013-01-18 23:43:00,
2013-01-18 18:48:00,30.3,17.7,30.40,SW,218,0.0,6.0,59,0.00,,---,0.00,0.00,VWS V14.00,2013-01-18 23:48:00,
2013-01-18 18:53:00,30.2,18.0,30.40,SSW,200,0.0,6.0,60,0.00,,---,0.00,0.00,VWS V14.00,2013-01-18 23:53:00,
2013-01-18 18:58:00,30.1,17.9,30.40,SE,146,0.0,6.0,60,0.00,,---,0.00,0.00,VWS V14.00,2013-01-18 23:58:00,
2013-01-18 19:00:00,30.1,17.5,30.40,SE,140,0.0,6.0,59,0.00,,---,0.00,0.00,VWS V14.00,2013-01-19 00:00:00,
2013-01-18 19:03:00,30.1,17.5,30.40,SW,222,0.0,3.0,59,0.00,,---,0.00,0.00,VWS V14.00,2013-01-19 00:03:00,
2013-01-18 19:08:00,30.0,17.8,30.40,SW,223,0.0,4.0,60,0.00,,---,0.00,0.00,VWS V14.00,2013-01-19 00:08:00,
2013-01-18 19:13:00,30.0,17.4,30.40,South,188,0.0,4.0,59,0.00,,---,0.00,0.00,VWS V14.00,2013-01-19 00:13:00,
2013-01-18 19:18:00,29.9,18.1,30.40,South,182,0.0,4.0,61,0.00,,---,0.00,0.00,VWS V14.00,2013-01-19 00:18:00,
2013-01-18 19:23:00,29.9,18.1,30.40,WSW,240,4.0,6.0,61,0.00,,---,0.00,0.00,VWS V14.00,2013-01-19 00:23:00,
2013-01-18 19:28:00,29.9,17.7,30.40,South,177,0.0,6.0,60,0.00,,---,0.00,0.00,VWS V14.00,2013-01-19 00:28:00,
2013-01-18 19:30:00,29.9,17.7,30.40,SSE,163,0.0,6.0,60,0.00,,---,0.00,0.00,VWS V14.00,2013-01-19 00:30:00,
2013-01-18 19:33:00,29.8,18.0,30.40,SSE,163,0.0,0.0,61,0.00,,---,0.00,0.00,VWS V14.00,2013-01-19 00:33:00,
2013-01-18 19:38:00,29.7,17.5,30.39,South,171,0.0,8.0,60,0.00,,---,0.00,0.00,VWS V14.00,2013-01-19 00:38:00,
2013-01-18 19:43:00,29.9,17.7,30.39,SE,127,0.0,8.0,60,0.00,,---,0.00,0.00,VWS V14.00,2013-01-19 00:43:00,
2013-01-18 19:48:00,29.9,17.3,30.39,SSE,157,0.0,8.0,59,0.00,,---,0.00,0.00,VWS V14.00,2013-01-19 00:48:00,
2013-01-18 19:53:00,29.9,17.3,30.38,SSE,157,0.0,8.0,59,0.00,,---,0.00,0.00,VWS V14.00,2013-01-19 00:53:00,
2013-01-18 19:59:00,30.0,17.4,30.39,SE,136,1.0,8.0,59,0.00,,---,0.00,0.00,VWS V14.00,2013-01-19 00:59:00,
2013-01-18 20:00:00,30.1,17.5,30.38,NNE,32,2.0,8.0,59,0.00,,---,0.00,0.00,VWS V14.00,2013-01-19 01:00:00,
2013-01-18 20:04:00,30.2,17.6,30.39,South,171,0.0,4.0,59,0.00,,---,0.00,0.00,VWS V14.00,2013-01-19 01:04:00,
2013-01-18 20:09:00,30.3,17.3,30.38,SSE,167,0.0,4.0,58,0.00,,---,0.00,0.00,VWS V14.00,2013-01-19 01:09:00,
2013-01-18 20:14:00,30.3,17.3,30.38,SE,134,0.0,4.0,58,0.00,,---,0.00,0.00,VWS V14.00,2013-01-19 01:14:00,
2013-01-18 20:19:00,30.4,17.4,30.37,South,186,3.0,5.0,58,0.00,,---,0.00,0.00,VWS V14.00,2013-01-19 01:19:00,
2013-01-18 20:24:00,30.5,17.5,30.37,West,268,2.0,5.0,58,0.00,,---,0.00,0.00,VWS V14.00,2013-01-19 01:24:00,
2013-01-18 20:29:00,30.5,17.9,30.37,South,175,0.0,5.0,59,0.00,,---,0.00,0.00,VWS V14.00,2013-01-19 01:29:00,
2013-01-18 20:30:00,30.4,17.4,30.37,SSW,208,0.0,6.0,58,0.00,,---,0.00,0.00,VWS V14.00,2013-01-19 01:30:00,
2013-01-18 20:34:00,30.5,17.9,30.37,SW,219,0.0,3.0,59,0.00,,---,0.00,0.00,VWS V14.00,2013-01-19 01:34:00,
2013-01-18 20:39:00,30.6,18.0,30.36,West,259,0.0,5.0,59,0.00,,---,0.00,0.00,VWS V14.00,2013-01-19 01:39:00,
2013-01-18 20:44:00,30.6,17.6,30.36,South,187,1.0,6.0,58,0.00,,---,0.00,0.00,VWS V14.00,2013-01-19 01:44:00,
2013-01-18 20:49:00,30.6,17.6,30.36,SW,218,0.0,6.0,58,0.00,,---,0.00,0.00,VWS V14.00,2013-01-19 01:49:00,
2013-01-18 20:54:00,30.6,18.0,30.36,ESE,119,0.0,6.0,59,0.00,,---,0.00,0.00,VWS V14.00,2013-01-19 01:54:00,
2013-01-18 20:59:00,30.6,17.6,30.36,SE,127,0.0,6.0,58,0.00,,---,0.00,0.00,VWS V14.00,2013-01-19 01:59:00,
2013-01-18 21:00:00,30.6,17.6,30.36,South,183,0.0,6.0,58,0.00,,---,0.00,0.00,VWS V14.00,2013-01-19 02:00:00,
2013-01-18 21:04:00,30.7,17.7,30.36,South,190,0.0,1.0,58,0.00,,---,0.00,0.00,VWS V14.00,2013-01-19 02:04:00,
2013-01-18 21:09:00,30.7,17.7,30.36,SSW,193,1.0,5.0,58,0.00,,---,0.00,0.00,VWS V14.00,2013-01-19 02:09:00,
2013-01-18 21:14:00,30.9,17.5,30.36,SSE,165,0.0,5.0,57,0.00,,---,0.00,0.00,VWS V14.00,2013-01-19 02:14:00,
2013-01-18 21:19:00,31.0,17.6,30.36,SE,139,4.0,5.0,57,0.00,,---,0.00,0.00,VWS V14.00,2013-01-19 02:19:00,
2013-01-18 21:24:00,31.1,17.7,30.35,SSE,157,0.0,7.0,57,0.00,,---,0.00,0.00,VWS V14.00,2013-01-19 02:24:00,
2013-01-18 21:29:00,31.2,17.8,30.35,SSE,153,0.0,7.0,57,0.00,,---,0.00,0.00,VWS V14.00,2013-01-19 02:29:00,
2013-01-18 21:30:00,31.2,17.8,30.35,SE,142,0.0,7.0,57,0.00,,---,0.00,0.00,VWS V14.00,2013-01-19 02:30:00,
2013-01-18 21:34:00,31.2,17.8,30.35,SSW,200,0.0,3.0,57,0.00,,---,0.00,0.00,VWS V14.00,2013-01-19 02:34:00,
2013-01-18 21:39:00,31.2,17.8,30.35,SE,140,0.0,5.0,57,0.00,,---,0.00,0.00,VWS V14.00,2013-01-19 02:39:00,
2013-01-18 21:44:00,31.2,17.8,30.35,West,269,0.0,5.0,57,0.00,,---,0.00,0.00,VWS V14.00,2013-01-19 02:44:00,
2013-01-18 21:49:00,31.2,17.8,30.34,South,177,0.0,5.0,57,0.00,,---,0.00,0.00,VWS V14.00,2013-01-19 02:49:00,
2013-01-18 21:54:00,31.3,18.2,30.34,SSW,192,0.0,5.0,58,0.00,,---,0.00,0.00,VWS V14.00,2013-01-19 02:54:00,
2013-01-18 21:59:00,31.2,18.2,30.34,SSE,159,1.0,5.0,58,0.00,,---,0.00,0.00,VWS V14.00,2013-01-19 02:59:00,
2013-01-18 22:00:00,31.3,18.2,30.34,West,271,0.0,5.0,58,0.00,,---,0.00,0.00,VWS V14.00,2013-01-19 03:00:00,
2013-01-18 22:04:00,31.3,18.2,30.34,ESE,110,2.0,2.0,58,0.00,,---,0.00,0.00,VWS V14.00,2013-01-19 03:04:00,
2013-01-18 22:09:00,31.4,18.4,30.34,SSW,209,0.0,7.0,58,0.00,,---,0.00,0.00,VWS V14.00,2013-01-19 03:09:00,
2013-01-18 22:14:00,31.5,18.4,30.33,SE,135,1.0,7.0,58,0.00,,---,0.00,0.00,VWS V14.00,2013-01-19 03:14:00,
2013-01-18 22:19:00,31.4,18.4,30.33,SW,214,0.0,7.0,58,0.00,,---,0.00,0.00,VWS V14.00,2013-01-19 03:19:00,
2013-01-18 22:24:00,31.4,18.4,30.33,SSE,156,2.0,7.0,58,0.00,,---,0.00,0.00,VWS V14.00,2013-01-19 03:24:00,
2013-01-18 22:29:00,31.4,18.4,30.33,South,189,0.0,7.0,58,0.00,,---,0.00,0.00,VWS V14.00,2013-01-19 03:29:00,
2013-01-18 22:30:00,31.4,18.4,30.33,South,189,0.0,7.0,58,0.00,,---,0.00,0.00,VWS V14.00,2013-01-19 03:30:00,
2013-01-18 22:34:00,31.3,18.2,30.33,South,187,0.0,2.0,58,0.00,,---,0.00,0.00,VWS V14.00,2013-01-19 03:34:00,
2013-01-18 22:39:00,31.4,18.4,30.32,SSE,161,0.0,2.0,58,0.00,,---,0.00,0.00,VWS V14.00,2013-01-19 03:39:00,
2013-01-18 22:45:00,31.4,18.4,30.32,South,172,0.0,6.0,58,0.00,,---,0.00,0.00,VWS V14.00,2013-01-19 03:45:00,
2013-01-18 22:50:00,31.5,18.4,30.32,SW,235,0.0,6.0,58,0.00,,---,0.00,0.00,VWS V14.00,2013-01-19 03:50:00,
2013-01-18 22:55:00,31.5,18.0,30.32,SSW,193,5.0,6.0,57,0.00,,---,0.00,0.00,VWS V14.00,2013-01-19 03:55:00,
2013-01-18 23:00:00,31.6,18.1,30.32,NW,313,0.0,6.0,57,0.00,,---,0.00,0.00,VWS V14.00,2013-01-19 04:00:00,
2013-01-18 23:05:00,31.6,18.1,30.31,South,178,6.0,6.0,57,0.00,,---,0.00,0.00,VWS V14.00,2013-01-19 04:05:00,
2013-01-18 23:10:00,31.7,18.2,30.31,SSE,157,0.0,6.0,57,0.00,,---,0.00,0.00,VWS V14.00,2013-01-19 04:10:00,
2013-01-18 23:15:00,31.7,18.6,30.31,SW,225,0.0,6.0,58,0.00,,---,0.00,0.00,VWS V14.00,2013-01-19 04:15:00,
2013-01-18 23:20:00,31.8,18.3,30.31,SW,234,2.0,7.0,57,0.00,,---,0.00,0.00,VWS V14.00,2013-01-19 04:20:00,
2013-01-18 23:25:00,31.9,18.4,30.30,SE,131,0.0,7.0,57,0.00,,---,0.00,0.00,VWS V14.00,2013-01-19 04:25:00,
2013-01-18 23:30:00,32.0,18.5,30.30,SSW,211,0.0,7.0,57,0.00,,---,0.00,0.00,VWS V14.00,2013-01-19 04:30:00,
2013-01-18 23:35:00,32.0,18.5,30.30,SSW,207,0.0,0.0,57,0.00,,---,0.00,0.00,VWS V14.00,2013-01-19 04:35:00,
2013-01-18 23:40:00,32.1,18.2,30.30,South,171,0.0,6.0,56,0.00,,---,0.00,0.00,VWS V14.00,2013-01-19 04:40:00,
2013-01-18 23:45:00,32.1,18.2,30.30,SE,135,0.0,6.0,56,0.00,,---,0.00,0.00,VWS V14.00,2013-01-19 04:45:00,
2013-01-18 23:50:00,32.2,17.9,30.30,SE,134,0.0,6.0,55,0.00,,---,0.00,0.00,VWS V14.00,2013-01-19 04:50:00,
2013-01-18 23:55:00,32.3,18.0,30.29,South,171,0.0,6.0,55,0.00,,---,0.00,0.00,VWS V14.00,2013-01-19 04:55:00,